Time;durP1;ratioP1;P1;durP2;ratioP2;P2;SDS_P1;SDS_P2;PMS_P1;PMS_P2;Temp;Humidity;BMP_temperature;BMP_pressure;BME280_temperature;BME280_humidity;BME280_pressure;Samples;Min_cycle;Max_cycle;Signal;HPM_P1;HPM_P2
2022/05/12 00:02:02;;;;;;;6.63;1.75;;;;;;;;;;5051774;28;20060;-27
2022/05/12 00:04:29;;;;;;;4.68;1.85;;;;;;;;;;5051886;28;20037;-26
2022/05/12 00:06:55;;;;;;;2.15;1.67;;;;;;;;;;5051378;28;20045;-26
2022/05/12 00:09:21;;;;;;;2.67;1.45;;;;;;;;;;5051237;28;20068;-26
2022/05/12 00:11:48;;;;;;;3.75;1.75;;;;;;;;;;5051102;28;20041;-25
2022/05/12 00:14:14;;;;;;;6.60;2.33;;;;;;;;;;5051525;28;20570;-27
2022/05/12 00:16:40;;;;;;;5.90;1.55;;;;;;;;;;5051440;28;20041;-26
2022/05/12 00:19:07;;;;;;;5.25;2.08;;;;;;;;;;5050952;28;20045;-26
2022/05/12 00:21:34;;;;;;;4.38;1.67;;;;;;;;;;5051396;28;20033;-26
2022/05/12 00:24:00;;;;;;;5.97;1.92;;;;;;;;;;5051031;28;20041;-26
2022/05/12 00:26:27;;;;;;;3.38;1.88;;;;;;;;;;5033405;28;20112;-27
2022/05/12 00:28:55;;;;;;;6.35;1.42;;;;;;;;;;5055791;28;20609;-26
2022/05/12 00:31:22;;;;;;;5.70;1.45;;;;;;;;;;5055758;28;20501;-25
2022/05/12 00:33:48;;;;;;;3.30;1.50;;;;;;;;;;5055568;28;20049;-25
2022/05/12 00:36:14;;;;;;;4.32;2.33;;;;;;;;;;5055352;28;20045;-24
2022/05/12 00:38:40;;;;;;;4.13;1.50;;;;;;;;;;5037050;28;20039;-27
2022/05/12 00:41:07;;;;;;;5.28;1.40;;;;;;;;;;5037230;28;20055;-26
2022/05/12 00:43:33;;;;;;;4.38;1.48;;;;;;;;;;5055164;28;20064;-25
2022/05/12 00:45:59;;;;;;;3.63;1.38;;;;;;;;;;5054893;28;20048;-24
2022/05/12 00:48:25;;;;;;;4.38;1.73;;;;;;;;;;5055020;28;20043;-25
2022/05/12 00:50:52;;;;;;;6.00;1.75;;;;;;;;;;5054694;28;20110;-25
2022/05/12 00:53:18;;;;;;;3.85;1.48;;;;;;;;;;5054574;28;20056;-24
2022/05/12 00:55:45;;;;;;;6.55;1.48;;;;;;;;;;5054951;28;20047;-24
2022/05/12 00:58:13;;;;;;;2.65;1.20;;;;;;;;;;5054520;28;20097;-26
2022/05/12 01:00:39;;;;;;;3.92;1.55;;;;;;;;;;5050417;28;20396;-28
2022/05/12 01:03:11;;;;;;;4.20;1.30;;;;;;;;;;5052191;28;20033;-27
2022/05/12 01:05:37;;;;;;;2.20;1.40;;;;;;;;;;5037018;28;20048;-29
2022/05/12 01:08:03;;;;;;;2.80;1.48;;;;;;;;;;5054462;28;20109;-28
2022/05/12 01:10:30;;;;;;;3.63;1.83;;;;;;;;;;5054422;28;20526;-27
2022/05/12 01:12:58;;;;;;;4.15;1.40;;;;;;;;;;5054467;28;20047;-27
2022/05/12 01:15:25;;;;;;;4.55;1.50;;;;;;;;;;5053979;28;20040;-28
2022/05/12 01:18:00;;;;;;;4.25;1.17;;;;;;;;;;5035214;28;20041;-28
2022/05/12 01:20:27;;;;;;;4.43;2.25;;;;;;;;;;5054096;28;20418;-27
2022/05/12 01:23:16;;;;;;;4.13;2.05;;;;;;;;;;5053890;28;20094;-27
2022/05/12 01:25:42;;;;;;;4.40;1.92;;;;;;;;;;5045331;28;20065;-29
2022/05/12 01:28:08;;;;;;;2.70;1.48;;;;;;;;;;5035351;28;20037;-30
2022/05/12 01:30:34;;;;;;;3.30;1.58;;;;;;;;;;5035888;28;20041;-27
2022/05/12 01:33:01;;;;;;;2.65;1.50;;;;;;;;;;5053589;28;20068;-29
2022/05/12 01:35:27;;;;;;;4.38;1.50;;;;;;;;;;5053577;28;20057;-29
2022/05/12 01:37:53;;;;;;;2.67;1.20;;;;;;;;;;5052855;28;20519;-28
2022/05/12 01:40:21;;;;;;;3.67;1.42;;;;;;;;;;5053295;28;20036;-26
2022/05/12 01:42:47;;;;;;;6.57;2.25;;;;;;;;;;5053748;28;20086;-32
2022/05/12 01:45:13;;;;;;;3.20;1.30;;;;;;;;;;5054236;28;20037;-27
2022/05/12 01:47:40;;;;;;;3.45;1.58;;;;;;;;;;5054359;28;20487;-25
2022/05/12 01:50:06;;;;;;;4.30;1.73;;;;;;;;;;5053805;28;20041;-25
2022/05/12 01:52:33;;;;;;;3.47;1.90;;;;;;;;;;5054271;28;20041;-25
2022/05/12 01:54:59;;;;;;;5.00;1.83;;;;;;;;;;5053957;28;20097;-29
2022/05/12 01:57:25;;;;;;;3.28;1.63;;;;;;;;;;5054053;28;20045;-26
2022/05/12 01:59:51;;;;;;;6.43;2.05;;;;;;;;;;5053607;28;20473;-25
2022/05/12 02:02:17;;;;;;;5.45;1.95;;;;;;;;;;5053860;28;20316;-26
2022/05/12 02:04:43;;;;;;;2.75;1.67;;;;;;;;;;5053965;28;20048;-25
2022/05/12 02:07:09;;;;;;;4.78;2.30;;;;;;;;;;5053526;28;20110;-25
2022/05/12 02:09:36;;;;;;;6.68;2.42;;;;;;;;;;5053686;28;20123;-26
2022/05/12 02:12:02;;;;;;;4.60;2.10;;;;;;;;;;5053484;28;20052;-26
2022/05/12 02:14:28;;;;;;;5.40;2.20;;;;;;;;;;5053345;28;20052;-26
2022/05/12 02:16:54;;;;;;;4.90;1.80;;;;;;;;;;5053263;28;20041;-26
2022/05/12 02:19:20;;;;;;;6.30;2.33;;;;;;;;;;5053484;28;20044;-26
2022/05/12 02:21:47;;;;;;;6.68;2.35;;;;;;;;;;5035556;28;20546;-26
2022/05/12 02:24:13;;;;;;;4.85;2.20;;;;;;;;;;5053453;28;20041;-27
2022/05/12 02:26:39;;;;;;;7.03;2.72;;;;;;;;;;5053035;28;20060;-26
2022/05/12 02:29:05;;;;;;;3.03;2.00;;;;;;;;;;5035067;28;20044;-27
2022/05/12 02:31:31;;;;;;;3.03;1.98;;;;;;;;;;5053048;28;20072;-26
2022/05/12 02:33:57;;;;;;;3.30;2.15;;;;;;;;;;5052811;28;20088;-27
2022/05/12 02:36:23;;;;;;;4.13;2.28;;;;;;;;;;5053281;28;20033;-26
2022/05/12 02:38:50;;;;;;;4.22;2.55;;;;;;;;;;5053077;28;20037;-27
2022/05/12 02:41:16;;;;;;;3.80;2.28;;;;;;;;;;5034869;28;20041;-25
2022/05/12 02:43:42;;;;;;;5.55;2.45;;;;;;;;;;5053066;28;20124;-26
2022/05/12 02:46:09;;;;;;;3.70;2.50;;;;;;;;;;5052437;28;20040;-25
2022/05/12 02:48:37;;;;;;;2.53;1.85;;;;;;;;;;5053088;28;20102;-25
2022/05/12 02:51:04;;;;;;;4.25;2.45;;;;;;;;;;5052524;28;20049;-26
2022/05/12 02:53:30;;;;;;;5.35;2.30;;;;;;;;;;5052665;28;20048;-25
2022/05/12 02:55:57;;;;;;;3.47;1.95;;;;;;;;;;5018279;28;20518;-24
2022/05/12 02:58:23;;;;;;;4.68;2.20;;;;;;;;;;5035028;28;20484;-27
2022/05/12 03:00:50;;;;;;;3.42;2.15;;;;;;;;;;5034958;28;20536;-25
2022/05/12 03:03:16;;;;;;;5.85;2.20;;;;;;;;;;5034890;28;20500;-26
2022/05/12 03:05:42;;;;;;;4.50;2.00;;;;;;;;;;5034844;28;20041;-27
2022/05/12 03:08:09;;;;;;;5.00;2.45;;;;;;;;;;5052476;28;20471;-25
2022/05/12 03:10:35;;;;;;;5.25;2.50;;;;;;;;;;5052534;28;20041;-25
2022/05/12 03:13:02;;;;;;;5.60;2.92;;;;;;;;;;5052361;28;20716;-27
2022/05/12 03:15:28;;;;;;;4.85;2.33;;;;;;;;;;5052470;28;20400;-27
2022/05/12 03:17:54;;;;;;;4.95;2.20;;;;;;;;;;5052176;28;20457;-26
2022/05/12 03:20:22;;;;;;;4.43;2.30;;;;;;;;;;5052306;28;20461;-25
2022/05/12 03:22:49;;;;;;;5.00;2.25;;;;;;;;;;5052294;28;20064;-25
2022/05/12 03:25:16;;;;;;;5.57;2.47;;;;;;;;;;5052259;28;20410;-27
2022/05/12 03:27:42;;;;;;;3.45;2.17;;;;;;;;;;5052212;28;20068;-25
2022/05/12 03:30:11;;;;;;;6.53;2.92;;;;;;;;;;5051820;28;20120;-26
2022/05/12 03:32:37;;;;;;;5.45;2.45;;;;;;;;;;5051930;28;20183;-24
2022/05/12 03:35:04;;;;;;;5.75;2.40;;;;;;;;;;5051711;28;20056;-25
2022/05/12 03:37:30;;;;;;;2.75;2.10;;;;;;;;;;5051940;28;20596;-27
2022/05/12 03:39:56;;;;;;;5.25;2.65;;;;;;;;;;5051644;28;20072;-27
2022/05/12 03:42:22;;;;;;;5.40;2.80;;;;;;;;;;5051887;28;20367;-25
2022/05/12 03:44:53;;;;;;;7.95;3.20;;;;;;;;;;5051695;28;20033;-25
2022/05/12 03:47:19;;;;;;;5.43;2.67;;;;;;;;;;5052047;28;20045;-25
2022/05/12 03:49:50;;;;;;;5.20;2.25;;;;;;;;;;5052000;28;20041;-25
2022/05/12 03:52:17;;;;;;;4.72;2.75;;;;;;;;;;5033967;28;20036;-24
2022/05/12 03:54:43;;;;;;;7.47;2.67;;;;;;;;;;5051585;28;20052;-26
2022/05/12 03:57:10;;;;;;;9.60;3.08;;;;;;;;;;5051418;28;20487;-25
2022/05/12 03:59:38;;;;;;;6.13;2.97;;;;;;;;;;5051582;28;20041;-25
2022/05/12 04:02:05;;;;;;;10.45;3.00;;;;;;;;;;5051144;28;20045;-26
2022/05/12 04:04:32;;;;;;;6.88;3.17;;;;;;;;;;5051840;28;20048;-26
2022/05/12 04:06:58;;;;;;;7.30;2.80;;;;;;;;;;5051772;28;20536;-26
2022/05/12 04:09:24;;;;;;;8.15;2.72;;;;;;;;;;5051688;28;20041;-26
2022/05/12 04:11:50;;;;;;;6.90;2.90;;;;;;;;;;5051585;28;20045;-25
2022/05/12 04:14:17;;;;;;;6.78;3.20;;;;;;;;;;5051290;28;20037;-26
2022/05/12 04:16:44;;;;;;;7.55;3.97;;;;;;;;;;5052041;28;20044;-26
2022/05/12 04:19:11;;;;;;;9.77;3.47;;;;;;;;;;5052811;28;20045;-25
2022/05/12 04:21:37;;;;;;;7.78;3.63;;;;;;;;;;5051907;28;20068;-26
2022/05/12 04:24:07;;;;;;;6.10;3.03;;;;;;;;;;5051391;28;20120;-25
2022/05/12 04:26:37;;;;;;;8.57;3.75;;;;;;;;;;5051395;28;20119;-25
2022/05/12 04:29:03;;;;;;;6.75;3.53;;;;;;;;;;5049635;28;20044;-25
2022/05/12 04:31:30;;;;;;;12.07;4.28;;;;;;;;;;5050943;28;20053;-25
2022/05/12 04:36:41;;;;;;;9.20;4.18;;;;;;;;;;5031257;28;20487;-25
2022/05/12 04:39:08;;;;;;;8.18;5.03;;;;;;;;;;5050258;28;20422;-25
2022/05/12 04:41:35;;;;;;;8.93;4.90;;;;;;;;;;5050423;28;20095;-25
2022/05/12 04:44:02;;;;;;;13.52;5.03;;;;;;;;;;5032961;28;20068;-26
2022/05/12 04:46:29;;;;;;;8.63;5.03;;;;;;;;;;5050587;28;20048;-26
2022/05/12 04:48:56;;;;;;;11.85;5.28;;;;;;;;;;5050924;28;20129;-25
2022/05/12 04:51:22;;;;;;;12.52;5.70;;;;;;;;;;5051010;28;20094;-26
2022/05/12 04:53:49;;;;;;;8.82;5.50;;;;;;;;;;5050718;28;20079;-26
2022/05/12 04:56:15;;;;;;;11.50;6.05;;;;;;;;;;5044620;28;20049;-26
2022/05/12 04:58:41;;;;;;;12.88;6.75;;;;;;;;;;5049904;28;20044;-27
2022/05/12 05:01:07;;;;;;;9.98;6.70;;;;;;;;;;5031190;28;20041;-25
2022/05/12 05:03:33;;;;;;;13.30;7.15;;;;;;;;;;5038628;28;20036;-25
2022/05/12 05:06:00;;;;;;;14.27;7.15;;;;;;;;;;5042119;28;20152;-26
2022/05/12 05:08:26;;;;;;;13.63;7.35;;;;;;;;;;5032719;28;20064;-25
2022/05/12 05:10:53;;;;;;;15.05;7.65;;;;;;;;;;5050240;28;20049;-26
2022/05/12 05:13:20;;;;;;;11.55;7.03;;;;;;;;;;5052279;28;20386;-26
2022/05/12 05:15:46;;;;;;;14.05;6.97;;;;;;;;;;5054323;28;20037;-25
2022/05/12 05:18:14;;;;;;;12.68;7.28;;;;;;;;;;5054210;28;20041;-28
2022/05/12 05:20:42;;;;;;;13.43;8.02;;;;;;;;;;5053548;28;20158;-26
2022/05/12 05:23:08;;;;;;;16.25;7.80;;;;;;;;;;5054170;28;20044;-26
2022/05/12 05:25:34;;;;;;;11.55;7.20;;;;;;;;;;5053903;28;20041;-26
2022/05/12 05:28:00;;;;;;;13.05;8.13;;;;;;;;;;5037518;28;20398;-26
2022/05/12 05:30:27;;;;;;;18.58;8.18;;;;;;;;;;5053669;28;20088;-26
2022/05/12 05:32:54;;;;;;;13.23;6.85;;;;;;;;;;5038472;28;20124;-26
2022/05/12 05:35:20;;;;;;;14.40;8.23;;;;;;;;;;5033775;28;20080;-24
2022/05/12 05:37:47;;;;;;;10.80;7.30;;;;;;;;;;5045091;28;20067;-25
2022/05/12 05:40:14;;;;;;;12.15;7.75;;;;;;;;;;5053340;28;20393;-25
2022/05/12 05:42:41;;;;;;;12.13;7.65;;;;;;;;;;5052724;28;20041;-27
2022/05/12 05:45:11;;;;;;;13.95;7.60;;;;;;;;;;5052950;28;20076;-26
2022/05/12 05:47:38;;;;;;;11.75;7.43;;;;;;;;;;5052449;28;20055;-25
2022/05/12 05:50:05;;;;;;;10.07;6.65;;;;;;;;;;5053160;28;20037;-25
2022/05/12 05:55:15;;;;;;;13.60;8.20;;;;;;;;;;5051998;28;20049;-26
2022/05/12 05:57:43;;;;;;;12.82;7.38;;;;;;;;;;5052244;28;20099;-27
2022/05/12 06:00:12;;;;;;;15.35;7.65;;;;;;;;;;5052286;28;20168;-25
2022/05/12 06:02:38;;;;;;;12.80;8.32;;;;;;;;;;5052997;28;20044;-26
2022/05/12 06:05:05;;;;;;;14.23;8.77;;;;;;;;;;5052919;28;20044;-25
2022/05/12 06:07:32;;;;;;;17.52;9.57;;;;;;;;;;5053608;28;20045;-25
2022/05/12 06:09:58;;;;;;;19.60;8.43;;;;;;;;;;5052903;28;20510;-26
2022/05/12 06:12:24;;;;;;;15.43;8.52;;;;;;;;;;5052782;28;20037;-25
2022/05/12 06:14:50;;;;;;;14.43;8.35;;;;;;;;;;5052968;28;20041;-29
2022/05/12 06:17:17;;;;;;;14.07;8.18;;;;;;;;;;5035244;28;20086;-26
2022/05/12 06:19:43;;;;;;;11.38;8.43;;;;;;;;;;5052876;28;20037;-26
2022/05/12 06:22:09;;;;;;;15.57;8.90;;;;;;;;;;5052971;28;20048;-25
2022/05/12 06:24:35;;;;;;;10.90;7.63;;;;;;;;;;5052179;28;20091;-25
2022/05/12 06:27:01;;;;;;;14.75;8.50;;;;;;;;;;5052735;28;20056;-26
2022/05/12 06:29:27;;;;;;;13.45;8.23;;;;;;;;;;5052827;28;20052;-25
2022/05/12 06:31:53;;;;;;;14.32;8.98;;;;;;;;;;5052842;28;20418;-26
2022/05/12 06:34:19;;;;;;;13.57;8.35;;;;;;;;;;5052824;28;20449;-27
2022/05/12 06:36:45;;;;;;;11.63;7.55;;;;;;;;;;5052981;28;20040;-25
2022/05/12 06:39:13;;;;;;;12.10;8.05;;;;;;;;;;5051883;28;20098;-26
2022/05/12 06:41:39;;;;;;;15.50;8.20;;;;;;;;;;5052656;28;20452;-24
2022/05/12 06:44:05;;;;;;;14.75;8.30;;;;;;;;;;5052249;28;20041;-26
2022/05/12 06:46:31;;;;;;;11.35;7.38;;;;;;;;;;5052400;28;20037;-25
2022/05/12 06:48:57;;;;;;;10.93;7.05;;;;;;;;;;5052265;28;20128;-26
2022/05/12 06:51:23;;;;;;;11.93;6.75;;;;;;;;;;5034319;28;20166;-25
2022/05/12 06:53:49;;;;;;;13.27;6.65;;;;;;;;;;5052322;28;20200;-24
2022/05/12 06:56:16;;;;;;;10.57;6.85;;;;;;;;;;5052297;28;20098;-24
2022/05/12 06:58:42;;;;;;;11.07;6.57;;;;;;;;;;5051938;28;20037;-25
2022/05/12 07:01:09;;;;;;;10.48;6.30;;;;;;;;;;5052491;28;20513;-25
2022/05/12 07:03:35;;;;;;;11.90;6.75;;;;;;;;;;5052546;28;20048;-26
2022/05/12 07:06:02;;;;;;;8.40;6.10;;;;;;;;;;5034652;28;20036;-26
2022/05/12 07:08:28;;;;;;;9.95;6.32;;;;;;;;;;5052051;28;20495;-25
2022/05/12 07:10:54;;;;;;;10.57;5.90;;;;;;;;;;5052144;28;20449;-25
2022/05/12 07:13:20;;;;;;;11.20;5.80;;;;;;;;;;5051912;28;20033;-25
2022/05/12 07:15:50;;;;;;;9.57;5.63;;;;;;;;;;5052089;28;20041;-25
2022/05/12 07:18:17;;;;;;;11.23;6.07;;;;;;;;;;5051878;28;20044;-31
2022/05/12 07:28:58;;;;;;;8.02;4.72;;;;;;;;;;5037111;28;20114;-28
2022/05/12 07:31:24;;;;;;;7.32;4.43;;;;;;;;;;5051542;28;20052;-29
2022/05/12 07:33:50;;;;;;;9.82;5.30;;;;;;;;;;5051878;28;20037;-28
2022/05/12 07:36:22;;;;;;;9.57;4.80;;;;;;;;;;5051372;28;20048;-29
2022/05/12 07:38:49;;;;;;;8.70;4.05;;;;;;;;;;5007436;28;20072;-28
2022/05/12 07:41:16;;;;;;;8.07;4.03;;;;;;;;;;5042944;28;20037;-30
2022/05/12 07:43:43;;;;;;;9.30;4.18;;;;;;;;;;5033853;28;20052;-28
2022/05/12 07:46:10;;;;;;;7.63;4.15;;;;;;;;;;5018087;28;20463;-25
2022/05/12 07:48:38;;;;;;;8.43;4.15;;;;;;;;;;5034326;28;20053;-27
2022/05/12 07:51:05;;;;;;;6.32;3.80;;;;;;;;;;5051763;28;20049;-31
2022/05/12 07:53:32;;;;;;;5.82;4.65;;;;;;;;;;5017192;28;20123;-30
2022/05/12 07:55:58;;;;;;;7.55;4.05;;;;;;;;;;5050843;28;20055;-29
2022/05/12 07:58:24;;;;;;;9.48;4.20;;;;;;;;;;5050674;28;20047;-28
2022/05/12 08:00:53;;;;;;;8.85;3.95;;;;;;;;;;5051307;28;20037;-29
2022/05/12 08:03:19;;;;;;;6.20;3.53;;;;;;;;;;5033952;28;20041;-32
2022/05/12 08:05:45;;;;;;;8.18;3.83;;;;;;;;;;5051658;28;20048;-31
2022/05/12 08:08:12;;;;;;;6.43;3.35;;;;;;;;;;5016930;28;20047;-29
2022/05/12 08:10:38;;;;;;;6.25;3.58;;;;;;;;;;5051354;28;20049;-30
2022/05/12 08:13:05;;;;;;;5.13;3.72;;;;;;;;;;5050580;28;20049;-29
2022/05/12 08:15:31;;;;;;;6.88;3.75;;;;;;;;;;5039997;28;20041;-29
2022/05/12 08:17:58;;;;;;;8.55;3.38;;;;;;;;;;5030123;28;20168;-29
2022/05/12 08:20:24;;;;;;;7.78;3.50;;;;;;;;;;5030618;28;20041;-30
2022/05/12 08:22:51;;;;;;;4.68;3.00;;;;;;;;;;5030789;28;20042;-31
2022/05/12 08:25:18;;;;;;;4.85;3.70;;;;;;;;;;5049425;28;20063;-31
2022/05/12 08:27:44;;;;;;;7.50;3.58;;;;;;;;;;5049131;28;20051;-30
2022/05/12 08:30:12;;;;;;;6.75;3.10;;;;;;;;;;5043040;28;20073;-29
2022/05/12 08:32:39;;;;;;;4.72;3.03;;;;;;;;;;5040086;28;20041;-30
2022/05/12 08:35:05;;;;;;;6.05;3.58;;;;;;;;;;5039370;28;20041;-31
2022/05/12 08:37:32;;;;;;;9.25;3.78;;;;;;;;;;5042680;28;20037;-31
2022/05/12 08:39:58;;;;;;;5.78;3.20;;;;;;;;;;5050514;28;20040;-31
2022/05/12 08:42:38;;;;;;;5.57;3.13;;;;;;;;;;5033644;28;20127;-29
2022/05/12 08:45:07;;;;;;;5.35;2.92;;;;;;;;;;5017118;28;20037;-31
2022/05/12 08:47:41;;;;;;;5.28;2.67;;;;;;;;;;5051033;28;20379;-32
2022/05/12 08:50:07;;;;;;;;;;;;;;;;;;5055519;28;20139;-29
2022/05/12 08:52:36;;;;;;;5.00;2.80;;;;;;;;;;5036799;28;20003;-31
2022/05/12 08:55:14;;;;;;;6.85;3.10;;;;;;;;;;5042308;28;20125;-34
2022/05/12 08:57:52;;;;;;;4.72;2.60;;;;;;;;;;5034482;28;20121;-28
2022/05/12 09:00:19;;;;;;;8.18;3.20;;;;;;;;;;5036186;28;20041;-31
2022/05/12 09:02:52;;;;;;;5.47;2.60;;;;;;;;;;5014533;28;20041;-32
2022/05/12 09:05:19;;;;;;;4.68;1.92;;;;;;;;;;5017334;28;20396;-29
2022/05/12 09:07:55;;;;;;;5.00;2.13;;;;;;;;;;5034633;28;20513;-31
2022/05/12 09:10:33;;;;;;;8.40;1.92;;;;;;;;;;5035243;28;20050;-32
2022/05/12 09:13:12;;;;;;;4.13;1.70;;;;;;;;;;5037117;28;20432;-31
2022/05/12 09:15:41;;;;;;;5.72;2.15;;;;;;;;;;5037139;28;20059;-27
2022/05/12 09:18:16;;;;;;;4.35;2.28;;;;;;;;;;5054644;28;20053;-27
2022/05/12 09:20:43;;;;;;;4.40;2.20;;;;;;;;;;5054914;28;20089;-27
2022/05/12 09:23:09;;;;;;;4.07;2.20;;;;;;;;;;5020623;28;20048;-28
2022/05/12 09:25:40;;;;;;;3.13;2.00;;;;;;;;;;5054889;28;20076;-29
2022/05/12 09:28:25;;;;;;;5.10;2.05;;;;;;;;;;5055069;28;20041;-27
2022/05/12 09:30:51;;;;;;;3.00;1.50;;;;;;;;;;5054622;28;20048;-28
2022/05/12 09:33:25;;;;;;;4.63;1.90;;;;;;;;;;5037284;28;20049;-28
2022/05/12 09:35:58;;;;;;;6.10;2.30;;;;;;;;;;5037146;28;20072;-28
2022/05/12 09:38:26;;;;;;;4.22;2.20;;;;;;;;;;5054614;28;20045;-28
2022/05/12 09:40:52;;;;;;;4.75;2.28;;;;;;;;;;5054641;28;20037;-27
2022/05/12 09:43:20;;;;;;;4.55;2.05;;;;;;;;;;5054510;28;20068;-27
2022/05/12 09:45:59;;;;;;;5.03;1.80;;;;;;;;;;5055013;28;20394;-28
2022/05/12 09:48:31;;;;;;;4.25;1.75;;;;;;;;;;5053750;28;20041;-32
2022/05/12 09:51:15;;;;;;;4.30;1.58;;;;;;;;;;5054283;28;20052;-28
2022/05/12 09:53:42;;;;;;;2.88;1.55;;;;;;;;;;5054333;28;20043;-27
2022/05/12 09:56:26;;;;;;;4.68;2.15;;;;;;;;;;5036395;28;20055;-28
2022/05/12 09:58:58;;;;;;;3.88;1.60;;;;;;;;;;5053228;28;20398;-29
2022/05/12 10:01:25;;;;;;;4.28;1.60;;;;;;;;;;5053670;28;20416;-28
2022/05/12 10:09:30;;;;;;;2.42;1.60;;;;;;;;;;5053969;28;20578;-28
2022/05/12 10:12:02;;;;;;;2.30;1.52;;;;;;;;;;5035959;28;20132;-27
2022/05/12 10:14:34;;;;;;;3.17;1.75;;;;;;;;;;5035806;28;20053;-27
2022/05/12 10:17:02;;;;;;;4.05;1.40;;;;;;;;;;5053621;28;20073;-29
2022/05/12 10:19:29;;;;;;;4.10;1.42;;;;;;;;;;5053905;28;20044;-28
2022/05/12 10:22:01;;;;;;;2.88;1.63;;;;;;;;;;5053485;28;20041;-30
2022/05/12 10:24:40;;;;;;;2.13;1.52;;;;;;;;;;5053277;28;20112;-27
2022/05/12 10:27:15;;;;;;;2.63;1.40;;;;;;;;;;5036224;28;20041;-28
2022/05/12 10:29:53;;;;;;;3.40;1.30;;;;;;;;;;5053940;28;20040;-28
2022/05/12 10:32:19;;;;;;;3.17;1.15;;;;;;;;;;5042479;28;20045;-28
2022/05/12 10:34:52;;;;;;;5.80;1.40;;;;;;;;;;5033812;28;20099;-29
2022/05/12 10:37:36;;;;;;;3.53;1.38;;;;;;;;;;5033317;28;20049;-30
2022/05/12 10:40:03;;;;;;;1.90;1.10;;;;;;;;;;5033481;28;20102;-29
2022/05/12 10:42:49;;;;;;;2.20;1.25;;;;;;;;;;5033536;28;20034;-29
2022/05/12 10:45:44;;;;;;;4.35;1.40;;;;;;;;;;5033482;28;20041;-28
2022/05/12 10:48:17;;;;;;;2.60;1.35;;;;;;;;;;5016060;28;20050;-28
2022/05/12 10:50:49;;;;;;;4.00;1.20;;;;;;;;;;5015247;28;20037;-28
2022/05/12 10:53:21;;;;;;;3.65;1.23;;;;;;;;;;5033056;28;20045;-28
2022/05/12 10:55:47;;;;;;;3.97;1.38;;;;;;;;;;5033436;28;20124;-29
2022/05/12 10:58:26;;;;;;;1.98;1.30;;;;;;;;;;5033033;28;20060;-28
2022/05/12 11:00:52;;;;;;;1.83;1.02;;;;;;;;;;5015389;28;20053;-31
2022/05/12 11:03:39;;;;;;;3.92;1.35;;;;;;;;;;4998950;28;20050;-29
2022/05/12 11:06:09;;;;;;;2.63;1.27;;;;;;;;;;5032587;28;20041;-29
2022/05/12 11:08:37;;;;;;;3.08;1.40;;;;;;;;;;5015442;28;20097;-29
2022/05/12 11:11:08;;;;;;;2.85;1.40;;;;;;;;;;5032059;28;20044;-28
2022/05/12 11:13:38;;;;;;;2.78;1.00;;;;;;;;;;5032542;28;20402;-31
2022/05/12 11:16:06;;;;;;;2.58;1.10;;;;;;;;;;5033001;28;20045;-28
2022/05/12 11:18:47;;;;;;;2.33;1.02;;;;;;;;;;5014634;28;20040;-28
2022/05/12 11:21:18;;;;;;;2.90;1.45;;;;;;;;;;5032781;28;20033;-29
2022/05/12 11:23:50;;;;;;;2.92;1.60;;;;;;;;;;5032421;28;20120;-28
2022/05/12 11:26:29;;;;;;;2.30;1.50;;;;;;;;;;4998880;28;20399;-28
2022/05/12 11:32:14;;;;;;;3.08;1.10;;;;;;;;;;5012861;28;20049;-29
2022/05/12 11:34:42;;;;;;;3.30;1.23;;;;;;;;;;4998677;28;20069;-28
2022/05/12 11:37:27;;;;;;;2.72;1.30;;;;;;;;;;5032836;28;20041;-29
2022/05/12 11:39:54;;;;;;;1.52;1.27;;;;;;;;;;5032642;28;20037;-29
2022/05/12 11:42:25;;;;;;;2.88;1.50;;;;;;;;;;5032166;28;20042;-28
2022/05/12 11:45:03;;;;;;;2.53;1.63;;;;;;;;;;5031896;28;20042;-28
2022/05/12 11:47:32;;;;;;;1.90;1.20;;;;;;;;;;5031950;28;20132;-28
2022/05/12 11:50:01;;;;;;;2.92;1.23;;;;;;;;;;5031606;28;20403;-29
2022/05/12 11:52:50;;;;;;;3.22;1.50;;;;;;;;;;4997982;28;20124;-29
2022/05/12 11:55:35;;;;;;;2.78;1.50;;;;;;;;;;4978533;28;20049;-28
2022/05/12 11:58:12;;;;;;;3.65;1.58;;;;;;;;;;5014406;28;20064;-30
2022/05/12 12:00:40;;;;;;;2.72;1.23;;;;;;;;;;5032444;28;20407;-29
2022/05/12 12:03:15;;;;;;;2.80;1.33;;;;;;;;;;5014589;28;20487;-28
2022/05/12 12:05:41;;;;;;;1.80;1.35;;;;;;;;;;5031911;28;20038;-28
2022/05/12 12:08:08;;;;;;;2.95;0.90;;;;;;;;;;5014263;28;20114;-28
2022/05/12 12:10:36;;;;;;;2.42;0.90;;;;;;;;;;5031885;28;20042;-29
2022/05/12 12:13:03;;;;;;;3.08;1.15;;;;;;;;;;5032496;28;20048;-29
2022/05/12 12:15:34;;;;;;;2.78;1.15;;;;;;;;;;5032154;28;20053;-40
2022/05/12 12:18:28;;;;;;;1.63;0.88;;;;;;;;;;5014237;28;20052;-30
2022/05/12 12:21:00;;;;;;;2.42;1.55;;;;;;;;;;5011829;28;20100;-28
2022/05/12 12:23:30;;;;;;;3.55;1.40;;;;;;;;;;4999992;28;20052;-28
2022/05/12 12:26:01;;;;;;;2.85;1.02;;;;;;;;;;5036236;28;20038;-28
2022/05/12 12:28:36;;;;;;;2.72;1.02;;;;;;;;;;5036162;28;20050;-29
2022/05/12 12:31:05;;;;;;;3.00;1.27;;;;;;;;;;5018451;28;20038;-28
2022/05/12 12:33:35;;;;;;;3.65;1.30;;;;;;;;;;5018361;28;20048;-27
2022/05/12 12:36:28;;;;;;;2.67;1.23;;;;;;;;;;5035656;28;20046;-27
2022/05/12 12:38:54;;;;;;;3.70;1.50;;;;;;;;;;5038275;28;20076;-32
2022/05/12 12:41:20;;;;;;;2.70;1.00;;;;;;;;;;5018041;28;20280;-27
2022/05/12 12:43:56;;;;;;;2.03;1.17;;;;;;;;;;5018271;28;20037;-28
2022/05/12 12:46:30;;;;;;;3.22;1.10;;;;;;;;;;5035593;28;20350;-27
2022/05/12 12:49:11;;;;;;;1.90;0.88;;;;;;;;;;5036026;28;20042;-28
2022/05/12 12:51:38;;;;;;;1.08;0.80;;;;;;;;;;5035343;28;20038;-27
2022/05/12 12:57:10;;;;;;;4.43;0.88;;;;;;;;;;5035515;28;20183;-29
2022/05/12 12:59:37;;;;;;;1.92;0.90;;;;;;;;;;5034973;28;20057;-32
2022/05/12 13:02:03;;;;;;;1.65;1.00;;;;;;;;;;5034946;28;20082;-27
2022/05/12 13:04:31;;;;;;;2.67;1.00;;;;;;;;;;5001051;28;20513;-27
2022/05/12 13:06:59;;;;;;;2.33;1.25;;;;;;;;;;5042113;28;20044;-27
2022/05/12 13:09:27;;;;;;;1.85;1.17;;;;;;;;;;5055186;28;20045;-27
2022/05/12 13:12:13;;;;;;;2.60;0.98;;;;;;;;;;5055258;28;20048;-28
2022/05/12 13:14:41;;;;;;;4.22;1.13;;;;;;;;;;5043434;28;20247;-27
2022/05/12 13:17:07;;;;;;;1.88;0.82;;;;;;;;;;5047439;28;20402;-27
2022/05/12 13:19:38;;;;;;;2.80;1.02;;;;;;;;;;5055146;28;20051;-34
2022/05/12 13:22:04;;;;;;;3.03;1.27;;;;;;;;;;5054721;28;20041;-26
2022/05/12 13:24:32;;;;;;;6.00;1.40;;;;;;;;;;5055017;28;20155;-28
2022/05/12 13:27:04;;;;;;;4.60;1.40;;;;;;;;;;5036882;28;20053;-27
2022/05/12 13:29:34;;;;;;;2.08;1.00;;;;;;;;;;5054726;28;20051;-26
2022/05/12 13:32:06;;;;;;;2.55;1.30;;;;;;;;;;5054753;28;20040;-26
2022/05/12 13:34:33;;;;;;;4.10;1.47;;;;;;;;;;5055088;28;20049;-28
2022/05/12 13:37:24;;;;;;;3.30;1.42;;;;;;;;;;5054899;28;20045;-28
2022/05/12 13:39:54;;;;;;;4.10;1.40;;;;;;;;;;5054526;28;20112;-27
2022/05/12 13:42:27;;;;;;;3.35;1.70;;;;;;;;;;5036821;28;20072;-27
2022/05/12 13:44:55;;;;;;;4.80;1.50;;;;;;;;;;5054727;28;20124;-27
2022/05/12 13:47:24;;;;;;;3.85;1.70;;;;;;;;;;5020142;28;20123;-28
2022/05/12 13:49:51;;;;;;;2.58;1.25;;;;;;;;;;5036677;28;20080;-30
2022/05/12 13:52:17;;;;;;;3.80;1.38;;;;;;;;;;5036231;28;20090;-27
2022/05/12 13:54:55;;;;;;;3.30;1.40;;;;;;;;;;5053407;28;20154;-30
2022/05/12 13:57:31;;;;;;;3.90;1.65;;;;;;;;;;5053484;28;20102;-30
2022/05/12 14:00:02;;;;;;;2.53;1.60;;;;;;;;;;5042990;28;20346;-30
2022/05/12 14:02:33;;;;;;;2.67;1.50;;;;;;;;;;5036562;28;20048;-31
2022/05/12 14:05:11;;;;;;;2.60;1.30;;;;;;;;;;5047373;28;20491;-30
2022/05/12 14:07:38;;;;;;;3.95;2.03;;;;;;;;;;5038753;28;20084;-29
2022/05/12 14:10:15;;;;;;;3.33;1.70;;;;;;;;;;5032801;28;20046;-29
2022/05/12 14:19:13;;;;;;;2.45;1.60;;;;;;;;;;5033118;28;20439;-31
2022/05/12 14:20:58;;;;;;;3.42;1.90;;;;;;;;;;5051600;28;20041;-29
2022/05/12 14:23:24;;;;;;;3.17;1.60;;;;;;;;;;5052821;28;20375;-31
2022/05/12 14:25:50;;;;;;;3.22;1.70;;;;;;;;;;5052454;28;20040;-31
2022/05/12 14:28:16;;;;;;;5.57;1.85;;;;;;;;;;5051803;28;20563;-30
2022/05/12 14:30:42;;;;;;;4.78;1.88;;;;;;;;;;5052388;28;20406;-31
2022/05/12 14:33:08;;;;;;;3.60;1.65;;;;;;;;;;5051477;28;20049;-30
2022/05/12 14:35:35;;;;;;;2.63;1.38;;;;;;;;;;5045810;28;20159;-30
2022/05/12 14:38:01;;;;;;;2.65;1.50;;;;;;;;;;5042931;28;20049;-30
2022/05/12 14:40:27;;;;;;;3.58;1.70;;;;;;;;;;5037821;28;20049;-31
2022/05/12 14:42:54;;;;;;;4.30;1.92;;;;;;;;;;5036584;28;20394;-30
2022/05/12 14:45:21;;;;;;;2.97;1.70;;;;;;;;;;5047146;28;20079;-31
2022/05/12 14:47:50;;;;;;;3.38;1.60;;;;;;;;;;5044518;28;20521;-30
2022/05/12 14:50:17;;;;;;;5.30;1.67;;;;;;;;;;5043256;28;20067;-29
2022/05/12 14:52:43;;;;;;;5.10;1.90;;;;;;;;;;5017666;28;20041;-29
2022/05/12 14:55:09;;;;;;;3.38;1.55;;;;;;;;;;5033171;28;20518;-30
2022/05/12 14:57:35;;;;;;;3.20;1.50;;;;;;;;;;5033400;28;20041;-30
2022/05/12 15:00:02;;;;;;;2.92;1.58;;;;;;;;;;5032550;28;20033;-30
2022/05/12 15:02:47;;;;;;;2.72;1.58;;;;;;;;;;5035258;28;20756;-30
2022/05/12 15:05:14;;;;;;;2.15;1.45;;;;;;;;;;5032257;28;20037;-31
2022/05/12 15:07:40;;;;;;;4.35;1.65;;;;;;;;;;5033001;28;20083;-31
2022/05/12 15:10:07;;;;;;;4.72;1.63;;;;;;;;;;5032241;28;20053;-32
2022/05/12 15:12:33;;;;;;;4.82;1.60;;;;;;;;;;5031653;28;20042;-28
2022/05/12 15:14:59;;;;;;;3.67;1.58;;;;;;;;;;5031755;28;20042;-26
2022/05/12 15:17:30;;;;;;;6.78;1.67;;;;;;;;;;5031568;28;20038;-27
2022/05/12 15:19:56;;;;;;;4.25;1.80;;;;;;;;;;5031816;28;20046;-28
2022/05/12 15:22:24;;;;;;;3.63;1.65;;;;;;;;;;5041020;28;20045;-29